»·PEaware :: N116S P29-KIWA

N116S :: P29-KIWA

FLIGHT INFORMATION

Flight Status: Arrived
Operator: Privately registered:
United States
More flights under this callsign
Pilot: Steve R. (16018)
Aircraft: ECLIPSE 500
(EA50)
More flights by this aircraft type
Origin: P29 Tombstone Mun
United States
Destination: KIWA Williams Gateway
United States
More flights between these airports :: More routes between these airports
Route: +JORTO V66 TUS V16 GICGE
File this flight plan on PilotEdge
Remarks: Sample flight plan
Altitude:
(Current/Filed)
10,000ft
Speed:
(Current/Filed)
325kts
Departed: 13-Feb-18 10:10 PM
Arrived: 13-Feb-18 10:59 PM
Distance/Time
Traveled:
128nm/0:48
Distance/Time
To Go:
Arrived

Flight Plot

Page will automatically refresh every two minutes.

Flight plan parsing failed; only flown route is shown


Map Options




Map Legend


Flown Route
Filed Route
Departure Airport
Arrival Airport
Navaid (VOR, NDB)
Fix

Horizontal Profiles

Position Reports

Time Latitude Longitude Heading Altitude Ground
Speed
13-Feb-18 22:11 31.672131 -110.017806 246 4691ft 0kts
13-Feb-18 22:12 31.672131 -110.017806 246 4691ft 0kts
13-Feb-18 22:13 31.671937 -110.018305 244 4691ft 9kts
13-Feb-18 22:14 31.670235 -110.022940 254 4700ft 0kts
13-Feb-18 22:15 31.668446 -110.027986 246 4725ft 21kts
13-Feb-18 22:16 31.668086 -110.029550 323 4734ft 4kts
13-Feb-18 22:17 31.673243 -110.009807 115 5615ft 97kts
13-Feb-18 22:18 31.640136 -110.016827 250 6681ft 220kts
13-Feb-18 22:19 31.678723 -110.078750 315 7651ft 260kts
13-Feb-18 22:20 31.715185 -110.129282 306 8566ft 174kts
13-Feb-18 22:21 31.737270 -110.166357 304 9464ft 119kts
13-Feb-18 22:22 31.752579 -110.194001 303 10222ft 103kts
13-Feb-18 22:23 31.770706 -110.228689 301 10568ft 173kts
13-Feb-18 22:24 31.798536 -110.285160 300 10558ft 242kts
13-Feb-18 22:25 31.832330 -110.355479 299 10556ft 272kts
13-Feb-18 22:26 31.868870 -110.432429 299 10554ft 279kts
13-Feb-18 22:27 31.904351 -110.507543 299 10554ft 252kts
13-Feb-18 22:28 31.937563 -110.578066 299 10554ft 242kts
13-Feb-18 22:29 31.969776 -110.646622 299 10555ft 239kts
13-Feb-18 22:30 32.001633 -110.714552 299 10554ft 238kts
13-Feb-18 22:31 32.033535 -110.782717 299 10554ft 237kts
13-Feb-18 22:32 32.065265 -110.850645 299 10554ft 237kts
13-Feb-18 22:33 32.099592 -110.916683 319 10556ft 236kts
13-Feb-18 22:34 32.101794 -110.918951 319 10556ft 236kts
13-Feb-18 22:35 32.101794 -110.918951 319 10556ft 236kts
13-Feb-18 22:36 32.101794 -110.918951 319 10556ft 236kts
13-Feb-18 22:37 32.101794 -110.918951 319 10556ft 236kts
13-Feb-18 22:38 32.101794 -110.918951 319 10556ft 236kts
13-Feb-18 22:39 32.101794 -110.918951 319 10556ft 236kts
13-Feb-18 22:40 32.101794 -110.918951 319 10556ft 236kts
13-Feb-18 22:41 32.101794 -110.918951 319 10556ft 236kts
13-Feb-18 22:42 32.101794 -110.918951 319 10556ft 236kts
13-Feb-18 22:43 32.101794 -110.918951 319 10556ft 236kts
13-Feb-18 22:44 32.101794 -110.918951 319 10556ft 236kts
13-Feb-18 22:45 32.101794 -110.918951 319 10556ft 236kts
13-Feb-18 22:46 32.101794 -110.918951 319 10556ft 236kts
13-Feb-18 22:47 32.101794 -110.918951 319 10556ft 236kts
13-Feb-18 22:48 32.101794 -110.918951 319 10556ft 236kts
13-Feb-18 22:49 32.101794 -110.918951 319 10556ft 236kts
13-Feb-18 22:50 32.750092 -111.566330 319 6471ft 138kts
13-Feb-18 22:51 32.777302 -111.594121 319 6471ft 133kts
13-Feb-18 22:52 32.803657 -111.621315 318 6494ft 127kts
13-Feb-18 22:53 32.828620 -111.647398 318 6508ft 124kts
13-Feb-18 22:54 32.857422 -111.664212 337 6508ft 122kts
13-Feb-18 22:55 32.887025 -111.678346 336 6508ft 121kts
13-Feb-18 22:56 32.918868 -111.693939 336 6515ft 150kts
13-Feb-18 22:57 32.960816 -111.712880 0 6508ft 185kts
13-Feb-18 22:58 33.011880 -111.705319 6 6509ft 200kts
13-Feb-18 22:59 33.065835 -111.696580 6 6509ft 206kts
13-Feb-18 23:00 33.120042 -111.687503 6 6506ft 192kts
13-Feb-18 23:01 33.166336 -111.675237 12 6082ft 183kts
13-Feb-18 23:02 33.211333 -111.663366 10 4200ft 160kts
13-Feb-18 23:03 33.248824 -111.654160 16 2775ft 119kts
13-Feb-18 23:04 33.272576 -111.637598 25 2253ft 95kts
13-Feb-18 23:05 33.295514 -111.640675 323 1521ft 89kts
13-Feb-18 23:06 33.307705 -111.654570 313 1357ft 33kts
13-Feb-18 23:07 33.307144 -111.660135 227 1357ft 16kts
13-Feb-18 23:08 33.305323 -111.662035 189 1357ft 0kts

Navigation Log

Ident Type
Flight plan parsing failed, navigation log unavailable